sensor_id;sensor_type;location;lat;lon;timestamp;temperature;humidity
13808;DHT22;40769;51.512;5.494;2023-04-23T00:00:07;11.60;99.90
13808;DHT22;40769;51.512;5.494;2023-04-23T00:02:36;11.60;99.90
13808;DHT22;40769;51.512;5.494;2023-04-23T00:05:04;11.50;99.90
13808;DHT22;40769;51.512;5.494;2023-04-23T00:07:32;11.40;99.90
13808;DHT22;40769;51.512;5.494;2023-04-23T00:09:59;11.30;99.90
13808;DHT22;40769;51.512;5.494;2023-04-23T00:12:26;11.10;99.90
13808;DHT22;40769;51.512;5.494;2023-04-23T00:14:52;11.00;99.90
13808;DHT22;40769;51.512;5.494;2023-04-23T00:17:17;11.00;99.90
13808;DHT22;40769;51.512;5.494;2023-04-23T00:19:44;11.00;99.90
13808;DHT22;40769;51.512;5.494;2023-04-23T00:22:10;10.90;99.90
13808;DHT22;40769;51.512;5.494;2023-04-23T00:24:38;10.90;99.90
13808;DHT22;40769;51.512;5.494;2023-04-23T00:27:04;10.90;99.90
13808;DHT22;40769;51.512;5.494;2023-04-23T00:29:29;11.00;99.90
13808;DHT22;40769;51.512;5.494;2023-04-23T00:31:55;11.00;99.90
13808;DHT22;40769;51.512;5.494;2023-04-23T00:34:21;11.00;99.90
13808;DHT22;40769;51.512;5.494;2023-04-23T00:36:47;11.00;99.90
13808;DHT22;40769;51.512;5.494;2023-04-23T00:39:12;11.10;99.90
13808;DHT22;40769;51.512;5.494;2023-04-23T00:41:39;11.10;99.90
13808;DHT22;40769;51.512;5.494;2023-04-23T00:44:06;11.40;99.90
13808;DHT22;40769;51.512;5.494;2023-04-23T00:46:31;11.10;99.90
13808;DHT22;40769;51.512;5.494;2023-04-23T00:48:59;11.10;99.90
13808;DHT22;40769;51.512;5.494;2023-04-23T00:51:25;11.30;99.90
13808;DHT22;40769;51.512;5.494;2023-04-23T00:53:51;11.10;99.90
13808;DHT22;40769;51.512;5.494;2023-04-23T00:56:17;11.00;99.90
13808;DHT22;40769;51.512;5.494;2023-04-23T00:58:43;10.90;99.90
13808;DHT22;40769;51.512;5.494;2023-04-23T01:01:09;10.80;99.90
13808;DHT22;40769;51.512;5.494;2023-04-23T01:03:37;10.60;99.90
13808;DHT22;40769;51.512;5.494;2023-04-23T01:06:04;10.50;99.90
13808;DHT22;40769;51.512;5.494;2023-04-23T01:08:30;10.50;99.90
13808;DHT22;40769;51.512;5.494;2023-04-23T01:10:57;10.50;99.90
13808;DHT22;40769;51.512;5.494;2023-04-23T01:13:23;10.60;99.90
13808;DHT22;40769;51.512;5.494;2023-04-23T01:15:54;10.70;99.90
13808;DHT22;40769;51.512;5.494;2023-04-23T01:18:20;10.70;99.90
13808;DHT22;40769;51.512;5.494;2023-04-23T01:20:45;10.80;99.90
13808;DHT22;40769;51.512;5.494;2023-04-23T01:23:11;10.80;99.90
13808;DHT22;40769;51.512;5.494;2023-04-23T01:25:37;10.80;99.90
13808;DHT22;40769;51.512;5.494;2023-04-23T01:28:04;10.80;99.90
13808;DHT22;40769;51.512;5.494;2023-04-23T01:30:31;10.80;99.90
13808;DHT22;40769;51.512;5.494;2023-04-23T01:32:58;10.90;99.90
13808;DHT22;40769;51.512;5.494;2023-04-23T01:35:24;11.20;99.90
13808;DHT22;40769;51.512;5.494;2023-04-23T01:37:50;10.90;99.90
13808;DHT22;40769;51.512;5.494;2023-04-23T01:40:18;11.20;99.90
13808;DHT22;40769;51.512;5.494;2023-04-23T01:42:44;10.80;99.90
13808;DHT22;40769;51.512;5.494;2023-04-23T01:45:10;10.70;99.90
13808;DHT22;40769;51.512;5.494;2023-04-23T01:47:36;10.60;99.90
13808;DHT22;40769;51.512;5.494;2023-04-23T01:50:02;10.50;99.90
13808;DHT22;40769;51.512;5.494;2023-04-23T01:52:29;10.40;99.90
13808;DHT22;40769;51.512;5.494;2023-04-23T01:54:55;10.30;99.90
13808;DHT22;40769;51.512;5.494;2023-04-23T01:57:21;10.20;99.90
13808;DHT22;40769;51.512;5.494;2023-04-23T02:00:00;10.20;99.90
13808;DHT22;40769;51.512;5.494;2023-04-23T02:02:28;10.20;99.90
13808;DHT22;40769;51.512;5.494;2023-04-23T02:04:54;10.20;99.90
13808;DHT22;40769;51.512;5.494;2023-04-23T02:07:20;10.30;99.90
13808;DHT22;40769;51.512;5.494;2023-04-23T02:09:45;10.40;99.90
13808;DHT22;40769;51.512;5.494;2023-04-23T02:12:11;10.50;99.90
13808;DHT22;40769;51.512;5.494;2023-04-23T02:14:36;10.80;99.90
13808;DHT22;40769;51.512;5.494;2023-04-23T02:17:02;10.70;99.90
13808;DHT22;40769;51.512;5.494;2023-04-23T02:19:27;10.80;99.90
13808;DHT22;40769;51.512;5.494;2023-04-23T02:21:56;10.90;99.90
13808;DHT22;40769;51.512;5.494;2023-04-23T02:24:21;10.90;99.90
13808;DHT22;40769;51.512;5.494;2023-04-23T02:26:47;11.00;99.90
13808;DHT22;40769;51.512;5.494;2023-04-23T02:29:13;11.00;99.90
13808;DHT22;40769;51.512;5.494;2023-04-23T02:31:39;11.00;99.90
13808;DHT22;40769;51.512;5.494;2023-04-23T02:34:04;11.00;99.90
13808;DHT22;40769;51.512;5.494;2023-04-23T02:36:30;10.90;99.90
13808;DHT22;40769;51.512;5.494;2023-04-23T02:38:56;11.20;99.90
13808;DHT22;40769;51.512;5.494;2023-04-23T02:41:22;10.90;99.90
13808;DHT22;40769;51.512;5.494;2023-04-23T02:43:47;10.90;99.90
13808;DHT22;40769;51.512;5.494;2023-04-23T02:46:13;11.00;99.90
13808;DHT22;40769;51.512;5.494;2023-04-23T02:48:40;11.30;99.90
13808;DHT22;40769;51.512;5.494;2023-04-23T02:51:07;11.10;99.90
13808;DHT22;40769;51.512;5.494;2023-04-23T02:53:33;11.20;99.90
13808;DHT22;40769;51.512;5.494;2023-04-23T02:55:59;11.20;99.90
13808;DHT22;40769;51.512;5.494;2023-04-23T02:58:25;11.20;99.90
13808;DHT22;40769;51.512;5.494;2023-04-23T03:00:51;11.20;99.90
13808;DHT22;40769;51.512;5.494;2023-04-23T03:03:17;11.30;99.90
13808;DHT22;40769;51.512;5.494;2023-04-23T03:05:42;11.30;99.90
13808;DHT22;40769;51.512;5.494;2023-04-23T03:08:08;11.30;99.90
13808;DHT22;40769;51.512;5.494;2023-04-23T03:10:34;11.40;99.90
13808;DHT22;40769;51.512;5.494;2023-04-23T03:12:59;11.70;99.90
13808;DHT22;40769;51.512;5.494;2023-04-23T03:15:25;11.40;99.90
13808;DHT22;40769;51.512;5.494;2023-04-23T03:17:51;11.40;99.90
13808;DHT22;40769;51.512;5.494;2023-04-23T03:20:18;11.70;99.90
13808;DHT22;40769;51.512;5.494;2023-04-23T03:22:44;11.40;99.90
13808;DHT22;40769;51.512;5.494;2023-04-23T03:25:10;11.50;99.90
13808;DHT22;40769;51.512;5.494;2023-04-23T03:27:38;11.20;99.90
13808;DHT22;40769;51.512;5.494;2023-04-23T03:30:04;11.20;99.90
13808;DHT22;40769;51.512;5.494;2023-04-23T03:32:32;11.20;99.90
13808;DHT22;40769;51.512;5.494;2023-04-23T03:34:57;11.30;99.90
13808;DHT22;40769;51.512;5.494;2023-04-23T03:37:23;11.30;99.90
13808;DHT22;40769;51.512;5.494;2023-04-23T03:39:48;11.30;99.90
13808;DHT22;40769;51.512;5.494;2023-04-23T03:42:15;11.50;99.90
13808;DHT22;40769;51.512;5.494;2023-04-23T03:44:41;11.50;99.90
13808;DHT22;40769;51.512;5.494;2023-04-23T03:47:06;11.50;99.90
13808;DHT22;40769;51.512;5.494;2023-04-23T03:49:32;11.60;99.90
13808;DHT22;40769;51.512;5.494;2023-04-23T03:51:57;11.60;99.90
13808;DHT22;40769;51.512;5.494;2023-04-23T03:54:23;11.80;99.90
13808;DHT22;40769;51.512;5.494;2023-04-23T03:56:50;11.70;99.90
13808;DHT22;40769;51.512;5.494;2023-04-23T03:59:15;11.80;99.90
13808;DHT22;40769;51.512;5.494;2023-04-23T04:01:42;11.80;99.90
13808;DHT22;40769;51.512;5.494;2023-04-23T04:04:08;11.80;99.90
13808;DHT22;40769;51.512;5.494;2023-04-23T04:06:33;11.90;99.90
13808;DHT22;40769;51.512;5.494;2023-04-23T04:08:59;11.90;99.90
13808;DHT22;40769;51.512;5.494;2023-04-23T04:11:24;11.90;99.90
13808;DHT22;40769;51.512;5.494;2023-04-23T04:13:51;11.80;99.90
13808;DHT22;40769;51.512;5.494;2023-04-23T04:16:16;11.70;99.90
13808;DHT22;40769;51.512;5.494;2023-04-23T04:18:42;11.70;99.90
13808;DHT22;40769;51.512;5.494;2023-04-23T04:21:07;11.70;99.90
13808;DHT22;40769;51.512;5.494;2023-04-23T04:23:33;11.80;99.90
13808;DHT22;40769;51.512;5.494;2023-04-23T04:25:59;11.80;99.90
13808;DHT22;40769;51.512;5.494;2023-04-23T04:28:25;11.80;99.90
13808;DHT22;40769;51.512;5.494;2023-04-23T04:30:54;11.80;99.90
13808;DHT22;40769;51.512;5.494;2023-04-23T04:33:22;11.90;99.90
13808;DHT22;40769;51.512;5.494;2023-04-23T04:35:47;11.90;99.90
13808;DHT22;40769;51.512;5.494;2023-04-23T04:38:13;12.20;99.90
13808;DHT22;40769;51.512;5.494;2023-04-23T04:40:40;11.90;99.90
13808;DHT22;40769;51.512;5.494;2023-04-23T04:43:06;12.00;99.90
13808;DHT22;40769;51.512;5.494;2023-04-23T04:45:31;12.20;99.90
13808;DHT22;40769;51.512;5.494;2023-04-23T04:47:57;12.30;99.90
13808;DHT22;40769;51.512;5.494;2023-04-23T04:50:23;12.10;99.90
13808;DHT22;40769;51.512;5.494;2023-04-23T04:52:49;12.10;99.90
13808;DHT22;40769;51.512;5.494;2023-04-23T04:55:15;12.20;99.90
13808;DHT22;40769;51.512;5.494;2023-04-23T04:57:40;12.20;99.90
13808;DHT22;40769;51.512;5.494;2023-04-23T05:00:24;12.20;99.90
13808;DHT22;40769;51.512;5.494;2023-04-23T05:02:52;12.00;99.90
13808;DHT22;40769;51.512;5.494;2023-04-23T05:05:18;12.20;99.90
13808;DHT22;40769;51.512;5.494;2023-04-23T05:07:44;11.80;99.90
13808;DHT22;40769;51.512;5.494;2023-04-23T05:10:10;11.90;99.90
13808;DHT22;40769;51.512;5.494;2023-04-23T05:12:36;11.80;99.90
13808;DHT22;40769;51.512;5.494;2023-04-23T05:15:09;11.90;99.90
13808;DHT22;40769;51.512;5.494;2023-04-23T05:17:36;11.90;99.90
13808;DHT22;40769;51.512;5.494;2023-04-23T05:20:02;12.00;99.90
13808;DHT22;40769;51.512;5.494;2023-04-23T05:22:28;12.00;99.90
13808;DHT22;40769;51.512;5.494;2023-04-23T05:24:54;12.20;99.90
13808;DHT22;40769;51.512;5.494;2023-04-23T05:27:20;12.20;99.90
13808;DHT22;40769;51.512;5.494;2023-04-23T05:29:45;12.40;99.90
13808;DHT22;40769;51.512;5.494;2023-04-23T05:32:11;12.40;99.90
13808;DHT22;40769;51.512;5.494;2023-04-23T05:34:37;12.50;99.90
13808;DHT22;40769;51.512;5.494;2023-04-23T05:37:02;12.70;99.90
13808;DHT22;40769;51.512;5.494;2023-04-23T05:39:28;12.60;99.90
13808;DHT22;40769;51.512;5.494;2023-04-23T05:41:54;12.70;99.90
13808;DHT22;40769;51.512;5.494;2023-04-23T05:44:19;12.80;99.90
13808;DHT22;40769;51.512;5.494;2023-04-23T05:46:45;12.90;99.90
13808;DHT22;40769;51.512;5.494;2023-04-23T05:49:11;12.90;99.90
13808;DHT22;40769;51.512;5.494;2023-04-23T05:51:36;13.00;99.90
13808;DHT22;40769;51.512;5.494;2023-04-23T05:54:02;13.10;99.90
13808;DHT22;40769;51.512;5.494;2023-04-23T05:56:27;13.10;99.90
13808;DHT22;40769;51.512;5.494;2023-04-23T05:58:53;13.10;99.90
13808;DHT22;40769;51.512;5.494;2023-04-23T06:01:18;13.20;99.90
13808;DHT22;40769;51.512;5.494;2023-04-23T06:03:44;13.30;99.90
13808;DHT22;40769;51.512;5.494;2023-04-23T06:06:13;13.30;99.90
13808;DHT22;40769;51.512;5.494;2023-04-23T06:08:38;13.40;99.90
13808;DHT22;40769;51.512;5.494;2023-04-23T06:11:05;13.70;99.90
13808;DHT22;40769;51.512;5.494;2023-04-23T06:13:31;13.60;99.90
13808;DHT22;40769;51.512;5.494;2023-04-23T06:15:57;13.70;99.90
13808;DHT22;40769;51.512;5.494;2023-04-23T06:18:22;13.90;99.90
13808;DHT22;40769;51.512;5.494;2023-04-23T06:20:48;14.00;99.90
13808;DHT22;40769;51.512;5.494;2023-04-23T06:23:16;14.30;99.90
13808;DHT22;40769;51.512;5.494;2023-04-23T06:25:42;14.50;99.90
13808;DHT22;40769;51.512;5.494;2023-04-23T06:28:07;14.70;99.90
13808;DHT22;40769;51.512;5.494;2023-04-23T06:30:33;15.00;99.90
13808;DHT22;40769;51.512;5.494;2023-04-23T06:33:01;15.10;99.90
13808;DHT22;40769;51.512;5.494;2023-04-23T06:35:26;15.30;99.90
13808;DHT22;40769;51.512;5.494;2023-04-23T06:37:52;15.50;99.90
13808;DHT22;40769;51.512;5.494;2023-04-23T06:40:17;15.70;99.90
13808;DHT22;40769;51.512;5.494;2023-04-23T06:42:43;15.90;99.90
13808;DHT22;40769;51.512;5.494;2023-04-23T06:45:10;16.40;99.90
13808;DHT22;40769;51.512;5.494;2023-04-23T06:47:35;16.30;99.90
13808;DHT22;40769;51.512;5.494;2023-04-23T06:50:01;16.40;99.90
13808;DHT22;40769;51.512;5.494;2023-04-23T06:52:27;16.60;99.90
13808;DHT22;40769;51.512;5.494;2023-04-23T06:54:53;16.70;99.90
13808;DHT22;40769;51.512;5.494;2023-04-23T06:57:18;16.80;99.90
13808;DHT22;40769;51.512;5.494;2023-04-23T06:59:44;17.00;99.90
13808;DHT22;40769;51.512;5.494;2023-04-23T07:02:09;17.10;99.90
13808;DHT22;40769;51.512;5.494;2023-04-23T07:04:35;17.20;99.90
13808;DHT22;40769;51.512;5.494;2023-04-23T07:07:01;17.30;99.90
13808;DHT22;40769;51.512;5.494;2023-04-23T07:09:27;17.40;99.90
13808;DHT22;40769;51.512;5.494;2023-04-23T07:11:53;17.60;99.90
13808;DHT22;40769;51.512;5.494;2023-04-23T07:14:19;17.80;99.90
13808;DHT22;40769;51.512;5.494;2023-04-23T07:16:44;17.80;99.90
13808;DHT22;40769;51.512;5.494;2023-04-23T07:19:10;17.90;99.90
13808;DHT22;40769;51.512;5.494;2023-04-23T07:21:36;18.00;99.90
13808;DHT22;40769;51.512;5.494;2023-04-23T07:24:02;18.10;99.90
13808;DHT22;40769;51.512;5.494;2023-04-23T07:26:34;18.20;99.90
13808;DHT22;40769;51.512;5.494;2023-04-23T07:29:00;18.40;99.90
13808;DHT22;40769;51.512;5.494;2023-04-23T07:31:26;18.50;99.90
13808;DHT22;40769;51.512;5.494;2023-04-23T07:33:53;18.60;99.90
13808;DHT22;40769;51.512;5.494;2023-04-23T07:36:19;18.80;99.90
13808;DHT22;40769;51.512;5.494;2023-04-23T07:38:44;18.90;99.90
13808;DHT22;40769;51.512;5.494;2023-04-23T07:41:10;18.90;99.90
13808;DHT22;40769;51.512;5.494;2023-04-23T07:43:37;19.10;99.90
13808;DHT22;40769;51.512;5.494;2023-04-23T07:46:03;19.30;99.90
13808;DHT22;40769;51.512;5.494;2023-04-23T07:48:29;19.40;99.90
13808;DHT22;40769;51.512;5.494;2023-04-23T07:50:55;19.60;99.90
13808;DHT22;40769;51.512;5.494;2023-04-23T07:53:21;19.70;99.90
13808;DHT22;40769;51.512;5.494;2023-04-23T07:55:47;19.80;99.90
13808;DHT22;40769;51.512;5.494;2023-04-23T07:58:12;19.90;99.90
13808;DHT22;40769;51.512;5.494;2023-04-23T08:00:38;20.00;99.90
13808;DHT22;40769;51.512;5.494;2023-04-23T08:03:04;20.10;99.90
13808;DHT22;40769;51.512;5.494;2023-04-23T08:05:30;20.20;99.90
13808;DHT22;40769;51.512;5.494;2023-04-23T08:07:56;20.20;99.90
13808;DHT22;40769;51.512;5.494;2023-04-23T08:10:22;20.40;99.90
13808;DHT22;40769;51.512;5.494;2023-04-23T08:12:47;20.50;99.90
13808;DHT22;40769;51.512;5.494;2023-04-23T08:15:13;20.60;99.90
13808;DHT22;40769;51.512;5.494;2023-04-23T08:17:39;20.80;99.90
13808;DHT22;40769;51.512;5.494;2023-04-23T08:20:05;21.00;99.90
13808;DHT22;40769;51.512;5.494;2023-04-23T08:22:31;21.10;99.90
13808;DHT22;40769;51.512;5.494;2023-04-23T08:24:57;21.30;99.90
13808;DHT22;40769;51.512;5.494;2023-04-23T08:27:23;21.40;99.90
13808;DHT22;40769;51.512;5.494;2023-04-23T08:29:48;21.60;99.90
13808;DHT22;40769;51.512;5.494;2023-04-23T08:32:14;21.70;99.90
13808;DHT22;40769;51.512;5.494;2023-04-23T08:34:39;21.70;99.90
13808;DHT22;40769;51.512;5.494;2023-04-23T08:37:05;21.90;99.90
13808;DHT22;40769;51.512;5.494;2023-04-23T08:39:33;22.10;99.90
13808;DHT22;40769;51.512;5.494;2023-04-23T08:42:04;22.30;99.90
13808;DHT22;40769;51.512;5.494;2023-04-23T08:44:32;22.50;99.90
13808;DHT22;40769;51.512;5.494;2023-04-23T08:47:03;22.70;99.90
13808;DHT22;40769;51.512;5.494;2023-04-23T08:49:32;22.80;99.90
13808;DHT22;40769;51.512;5.494;2023-04-23T08:52:18;23.00;99.90
13808;DHT22;40769;51.512;5.494;2023-04-23T08:54:51;23.20;99.90
13808;DHT22;40769;51.512;5.494;2023-04-23T08:57:17;23.40;99.90
13808;DHT22;40769;51.512;5.494;2023-04-23T08:59:44;23.50;99.90
13808;DHT22;40769;51.512;5.494;2023-04-23T09:02:10;23.70;99.90
13808;DHT22;40769;51.512;5.494;2023-04-23T09:04:36;23.70;99.90
13808;DHT22;40769;51.512;5.494;2023-04-23T09:07:03;23.80;99.90
13808;DHT22;40769;51.512;5.494;2023-04-23T09:09:36;23.90;99.90
13808;DHT22;40769;51.512;5.494;2023-04-23T09:12:05;24.00;99.90
13808;DHT22;40769;51.512;5.494;2023-04-23T09:14:34;24.10;99.90
13808;DHT22;40769;51.512;5.494;2023-04-23T09:17:04;24.20;99.90
13808;DHT22;40769;51.512;5.494;2023-04-23T09:19:29;24.30;99.90
13808;DHT22;40769;51.512;5.494;2023-04-23T09:21:57;24.60;99.90
13808;DHT22;40769;51.512;5.494;2023-04-23T09:24:23;24.40;99.90
13808;DHT22;40769;51.512;5.494;2023-04-23T09:26:50;24.50;99.90
13808;DHT22;40769;51.512;5.494;2023-04-23T09:29:18;24.50;99.90
13808;DHT22;40769;51.512;5.494;2023-04-23T09:32:08;24.50;99.90
13808;DHT22;40769;51.512;5.494;2023-04-23T09:34:36;24.60;99.90
13808;DHT22;40769;51.512;5.494;2023-04-23T09:37:04;24.70;99.90
13808;DHT22;40769;51.512;5.494;2023-04-23T09:39:30;24.70;99.90
13808;DHT22;40769;51.512;5.494;2023-04-23T09:42:03;24.80;99.90
13808;DHT22;40769;51.512;5.494;2023-04-23T09:44:31;25.00;99.90
13808;DHT22;40769;51.512;5.494;2023-04-23T09:47:08;25.10;99.90
13808;DHT22;40769;51.512;5.494;2023-04-23T09:49:44;25.20;99.90
13808;DHT22;40769;51.512;5.494;2023-04-23T09:52:11;25.30;99.90
13808;DHT22;40769;51.512;5.494;2023-04-23T09:54:36;25.30;99.90
13808;DHT22;40769;51.512;5.494;2023-04-23T09:57:04;25.40;99.90
13808;DHT22;40769;51.512;5.494;2023-04-23T09:59:33;25.40;99.90
13808;DHT22;40769;51.512;5.494;2023-04-23T10:02:05;25.30;99.90
13808;DHT22;40769;51.512;5.494;2023-04-23T10:04:31;25.20;99.90
13808;DHT22;40769;51.512;5.494;2023-04-23T10:06:59;25.00;99.90
13808;DHT22;40769;51.512;5.494;2023-04-23T10:09:27;24.80;99.90
13808;DHT22;40769;51.512;5.494;2023-04-23T10:11:54;24.60;99.90
13808;DHT22;40769;51.512;5.494;2023-04-23T10:14:21;24.30;99.90
13808;DHT22;40769;51.512;5.494;2023-04-23T10:16:50;24.10;99.90
13808;DHT22;40769;51.512;5.494;2023-04-23T10:19:22;23.90;99.90
13808;DHT22;40769;51.512;5.494;2023-04-23T10:21:52;23.70;99.90
13808;DHT22;40769;51.512;5.494;2023-04-23T10:24:22;23.60;99.90
13808;DHT22;40769;51.512;5.494;2023-04-23T10:26:50;23.50;99.90
13808;DHT22;40769;51.512;5.494;2023-04-23T10:29:19;23.30;99.90
13808;DHT22;40769;51.512;5.494;2023-04-23T10:31:46;23.40;99.90
13808;DHT22;40769;51.512;5.494;2023-04-23T10:34:14;23.40;99.90
13808;DHT22;40769;51.512;5.494;2023-04-23T10:36:40;23.40;99.90
13808;DHT22;40769;51.512;5.494;2023-04-23T10:39:06;23.50;99.90
13808;DHT22;40769;51.512;5.494;2023-04-23T10:41:40;23.50;99.90
13808;DHT22;40769;51.512;5.494;2023-04-23T10:44:08;23.50;99.90
13808;DHT22;40769;51.512;5.494;2023-04-23T10:46:35;23.50;99.90
13808;DHT22;40769;51.512;5.494;2023-04-23T10:49:12;23.40;99.90
13808;DHT22;40769;51.512;5.494;2023-04-23T10:51:41;23.30;99.90
13808;DHT22;40769;51.512;5.494;2023-04-23T10:54:10;23.20;99.90
13808;DHT22;40769;51.512;5.494;2023-04-23T10:56:38;23.20;99.90
13808;DHT22;40769;51.512;5.494;2023-04-23T10:59:18;23.20;99.90
13808;DHT22;40769;51.512;5.494;2023-04-23T11:01:49;23.30;99.90
13808;DHT22;40769;51.512;5.494;2023-04-23T11:04:30;23.40;99.90
13808;DHT22;40769;51.512;5.494;2023-04-23T11:07:06;23.50;99.90
13808;DHT22;40769;51.512;5.494;2023-04-23T11:09:48;23.70;99.90
13808;DHT22;40769;51.512;5.494;2023-04-23T11:14:50;23.90;99.90
13808;DHT22;40769;51.512;5.494;2023-04-23T11:17:22;23.90;99.90
13808;DHT22;40769;51.512;5.494;2023-04-23T11:20:09;24.00;99.90
13808;DHT22;40769;51.512;5.494;2023-04-23T11:22:37;24.00;99.90
13808;DHT22;40769;51.512;5.494;2023-04-23T11:25:04;23.90;99.90
13808;DHT22;40769;51.512;5.494;2023-04-23T11:27:31;23.80;99.90
13808;DHT22;40769;51.512;5.494;2023-04-23T11:29:56;23.80;99.90
13808;DHT22;40769;51.512;5.494;2023-04-23T11:32:22;23.70;99.90
13808;DHT22;40769;51.512;5.494;2023-04-23T11:34:49;23.60;99.90
13808;DHT22;40769;51.512;5.494;2023-04-23T11:37:16;23.60;99.90
13808;DHT22;40769;51.512;5.494;2023-04-23T11:39:44;23.50;99.90
13808;DHT22;40769;51.512;5.494;2023-04-23T11:44:37;23.30;99.90
13808;DHT22;40769;51.512;5.494;2023-04-23T11:47:06;23.30;99.90
13808;DHT22;40769;51.512;5.494;2023-04-23T11:49:32;23.30;99.90
13808;DHT22;40769;51.512;5.494;2023-04-23T11:51:59;23.30;99.90
13808;DHT22;40769;51.512;5.494;2023-04-23T11:54:27;23.20;99.90
13808;DHT22;40769;51.512;5.494;2023-04-23T11:56:54;23.30;99.90
13808;DHT22;40769;51.512;5.494;2023-04-23T11:59:20;23.30;99.90
13808;DHT22;40769;51.512;5.494;2023-04-23T12:01:48;23.30;99.90
13808;DHT22;40769;51.512;5.494;2023-04-23T12:04:15;23.40;99.90
13808;DHT22;40769;51.512;5.494;2023-04-23T12:06:42;23.50;99.90
13808;DHT22;40769;51.512;5.494;2023-04-23T12:09:09;23.60;99.90
13808;DHT22;40769;51.512;5.494;2023-04-23T12:11:36;23.70;99.90
13808;DHT22;40769;51.512;5.494;2023-04-23T12:14:02;23.80;99.90
13808;DHT22;40769;51.512;5.494;2023-04-23T12:19:00;24.10;99.90
13808;DHT22;40769;51.512;5.494;2023-04-23T12:21:26;24.30;99.90
13808;DHT22;40769;51.512;5.494;2023-04-23T12:23:55;24.40;99.90
13808;DHT22;40769;51.512;5.494;2023-04-23T12:26:21;24.60;99.90
13808;DHT22;40769;51.512;5.494;2023-04-23T12:28:49;24.60;99.90
13808;DHT22;40769;51.512;5.494;2023-04-23T12:31:25;24.70;99.90
13808;DHT22;40769;51.512;5.494;2023-04-23T12:34:05;24.60;99.90
13808;DHT22;40769;51.512;5.494;2023-04-23T12:36:31;24.70;99.90
13808;DHT22;40769;51.512;5.494;2023-04-23T12:39:34;24.60;99.90
13808;DHT22;40769;51.512;5.494;2023-04-23T12:42:02;24.70;99.90
13808;DHT22;40769;51.512;5.494;2023-04-23T12:44:38;24.70;99.90
13808;DHT22;40769;51.512;5.494;2023-04-23T12:47:08;24.80;99.90
13808;DHT22;40769;51.512;5.494;2023-04-23T12:49:37;24.80;99.90
13808;DHT22;40769;51.512;5.494;2023-04-23T12:52:04;24.80;99.90
13808;DHT22;40769;51.512;5.494;2023-04-23T12:54:33;24.70;99.90
13808;DHT22;40769;51.512;5.494;2023-04-23T12:57:01;24.70;99.90
13808;DHT22;40769;51.512;5.494;2023-04-23T12:59:28;24.50;99.90
13808;DHT22;40769;51.512;5.494;2023-04-23T13:01:53;24.50;99.90
13808;DHT22;40769;51.512;5.494;2023-04-23T13:04:19;24.30;99.90
13808;DHT22;40769;51.512;5.494;2023-04-23T13:06:45;24.30;99.90
13808;DHT22;40769;51.512;5.494;2023-04-23T13:09:11;24.20;99.90
13808;DHT22;40769;51.512;5.494;2023-04-23T13:11:38;24.10;99.90
13808;DHT22;40769;51.512;5.494;2023-04-23T13:14:04;24.00;99.90
13808;DHT22;40769;51.512;5.494;2023-04-23T13:16:30;24.00;99.90
13808;DHT22;40769;51.512;5.494;2023-04-23T13:18:55;23.90;99.90
13808;DHT22;40769;51.512;5.494;2023-04-23T13:21:21;23.90;99.90
13808;DHT22;40769;51.512;5.494;2023-04-23T13:23:47;23.90;99.90
13808;DHT22;40769;51.512;5.494;2023-04-23T13:26:12;23.90;99.90
13808;DHT22;40769;51.512;5.494;2023-04-23T13:28:38;23.90;99.90
13808;DHT22;40769;51.512;5.494;2023-04-23T13:31:04;23.80;99.90
13808;DHT22;40769;51.512;5.494;2023-04-23T13:33:30;23.80;99.90
13808;DHT22;40769;51.512;5.494;2023-04-23T13:35:57;23.70;99.90
13808;DHT22;40769;51.512;5.494;2023-04-23T13:38:26;23.60;99.90
13808;DHT22;40769;51.512;5.494;2023-04-23T13:40:52;23.50;99.90
13808;DHT22;40769;51.512;5.494;2023-04-23T13:43:18;23.50;99.90
13808;DHT22;40769;51.512;5.494;2023-04-23T13:45:45;23.40;99.90
13808;DHT22;40769;51.512;5.494;2023-04-23T13:48:14;23.30;99.90
13808;DHT22;40769;51.512;5.494;2023-04-23T13:50:40;23.20;99.90
13808;DHT22;40769;51.512;5.494;2023-04-23T13:53:07;23.10;99.90
13808;DHT22;40769;51.512;5.494;2023-04-23T13:55:33;23.00;99.90
13808;DHT22;40769;51.512;5.494;2023-04-23T13:57:58;22.80;99.90
13808;DHT22;40769;51.512;5.494;2023-04-23T14:00:26;22.70;99.90
13808;DHT22;40769;51.512;5.494;2023-04-23T14:02:52;22.60;99.90
13808;DHT22;40769;51.512;5.494;2023-04-23T14:05:17;22.30;99.90
13808;DHT22;40769;51.512;5.494;2023-04-23T14:07:43;22.00;99.90
13808;DHT22;40769;51.512;5.494;2023-04-23T14:10:09;21.70;99.90
13808;DHT22;40769;51.512;5.494;2023-04-23T14:12:36;21.30;99.90
13808;DHT22;40769;51.512;5.494;2023-04-23T14:15:09;21.10;99.90
13808;DHT22;40769;51.512;5.494;2023-04-23T14:17:36;20.70;99.90
13808;DHT22;40769;51.512;5.494;2023-04-23T14:20:02;20.50;99.90
13808;DHT22;40769;51.512;5.494;2023-04-23T14:22:30;20.20;99.90
13808;DHT22;40769;51.512;5.494;2023-04-23T14:25:01;19.80;99.90
13808;DHT22;40769;51.512;5.494;2023-04-23T14:27:31;19.50;99.90
13808;DHT22;40769;51.512;5.494;2023-04-23T14:30:01;19.10;99.90
13808;DHT22;40769;51.512;5.494;2023-04-23T14:32:30;18.80;99.90
13808;DHT22;40769;51.512;5.494;2023-04-23T14:34:55;18.40;99.90
13808;DHT22;40769;51.512;5.494;2023-04-23T14:37:21;18.10;99.90
13808;DHT22;40769;51.512;5.494;2023-04-23T14:39:47;17.70;99.90
13808;DHT22;40769;51.512;5.494;2023-04-23T14:42:12;17.20;99.90
13808;DHT22;40769;51.512;5.494;2023-04-23T14:44:38;16.80;99.90
13808;DHT22;40769;51.512;5.494;2023-04-23T14:47:04;16.50;99.90
13808;DHT22;40769;51.512;5.494;2023-04-23T14:49:32;16.10;99.90
13808;DHT22;40769;51.512;5.494;2023-04-23T14:51:58;15.90;99.90
13808;DHT22;40769;51.512;5.494;2023-04-23T14:54:23;15.70;99.90
13808;DHT22;40769;51.512;5.494;2023-04-23T14:56:50;15.50;99.90
13808;DHT22;40769;51.512;5.494;2023-04-23T14:59:16;15.40;99.90
13808;DHT22;40769;51.512;5.494;2023-04-23T15:01:42;15.30;99.90
13808;DHT22;40769;51.512;5.494;2023-04-23T15:04:10;15.20;99.90
13808;DHT22;40769;51.512;5.494;2023-04-23T15:06:36;15.00;99.90
13808;DHT22;40769;51.512;5.494;2023-04-23T15:09:03;15.10;99.90
13808;DHT22;40769;51.512;5.494;2023-04-23T15:11:28;14.80;99.90
13808;DHT22;40769;51.512;5.494;2023-04-23T15:14:00;14.80;99.90
13808;DHT22;40769;51.512;5.494;2023-04-23T15:16:29;14.70;99.90
13808;DHT22;40769;51.512;5.494;2023-04-23T15:18:58;14.80;99.90
13808;DHT22;40769;51.512;5.494;2023-04-23T15:21:24;14.80;99.90
13808;DHT22;40769;51.512;5.494;2023-04-23T15:23:49;14.80;99.90
13808;DHT22;40769;51.512;5.494;2023-04-23T15:26:15;14.80;99.90
13808;DHT22;40769;51.512;5.494;2023-04-23T15:28:41;14.80;99.90
13808;DHT22;40769;51.512;5.494;2023-04-23T15:31:08;14.80;99.90
13808;DHT22;40769;51.512;5.494;2023-04-23T15:33:34;14.80;99.90
13808;DHT22;40769;51.512;5.494;2023-04-23T15:35:59;14.90;99.90